Time;durP1;ratioP1;P1;durP2;ratioP2;P2;SDS_P1;SDS_P2;PMS_P1;PMS_P2;Temp;Humidity;BMP_temperature;BMP_pressure;BME280_temperature;BME280_humidity;BME280_pressure;Samples;Min_cycle;Max_cycle;Signal;HPM_P1;HPM_P2
2023/03/04 00:02:01;;;;;;;8.75;5.90;;;;;;;-0.44;66.62;98504.34;4938307;29;20035;-76
2023/03/04 00:04:27;;;;;;;11.63;6.65;;;;;;;-0.41;66.81;98509.47;4967434;28;20047;-76
2023/03/04 00:06:53;;;;;;;7.03;4.82;;;;;;;-0.36;66.79;98509.22;4973481;28;20469;-77
2023/03/04 00:09:19;;;;;;;8.82;5.82;;;;;;;-0.36;66.90;98512.69;4974793;28;20042;-75
2023/03/04 00:11:45;;;;;;;9.23;5.55;;;;;;;-0.45;66.85;98502.66;4973415;28;20043;-75
2023/03/04 00:14:11;;;;;;;8.63;5.80;;;;;;;-0.45;66.98;98512.28;4957579;28;20082;-76
2023/03/04 00:16:37;;;;;;;8.82;6.28;;;;;;;-0.43;67.22;98510.44;4973696;28;20042;-76
2023/03/04 00:19:03;;;;;;;11.23;6.30;;;;;;;-0.39;66.78;98507.59;4983686;28;20057;-75
2023/03/04 00:21:29;;;;;;;9.77;6.03;;;;;;;-0.34;66.77;98520.47;4976599;28;20049;-75
2023/03/04 00:23:55;;;;;;;8.77;6.28;;;;;;;-0.36;66.96;98507.44;4992840;28;20052;-76
2023/03/04 00:26:21;;;;;;;6.80;5.70;;;;;;;-0.35;66.64;98518.78;4992598;28;20042;-77
2023/03/04 00:28:46;;;;;;;9.88;6.35;;;;;;;-0.38;66.92;98514.53;4992573;28;20046;-76
2023/03/04 00:31:12;;;;;;;8.23;5.13;;;;;;;-0.52;67.65;98514.38;4992165;28;20437;-76
2023/03/04 00:33:39;;;;;;;9.65;5.85;;;;;;;-0.57;67.54;98509.31;4992286;28;20048;-76
2023/03/04 00:36:05;;;;;;;6.40;4.75;;;;;;;-0.63;68.43;98517.50;4977970;28;20046;-78
2023/03/04 00:38:31;;;;;;;6.72;5.20;;;;;;;-0.54;68.52;98524.09;4972566;28;20546;-76
2023/03/04 00:40:57;;;;;;;9.82;5.28;;;;;;;-0.50;68.15;98520.38;4956953;28;20073;-80
2023/03/04 00:43:23;;;;;;;7.55;5.53;;;;;;;-0.52;68.90;98522.25;4957003;28;20042;-78
2023/03/04 00:45:49;;;;;;;9.10;5.70;;;;;;;-0.51;68.35;98530.03;4956858;28;20061;-75
2023/03/04 00:48:15;;;;;;;11.20;5.95;;;;;;;-0.48;68.81;98533.47;4957364;28;20133;-76
2023/03/04 00:50:42;;;;;;;8.20;5.55;;;;;;;-0.44;68.44;98532.38;4973259;28;20034;-75
2023/03/04 00:53:09;;;;;;;9.43;6.07;;;;;;;-0.47;68.43;98522.03;4972740;28;20626;-75
2023/03/04 00:55:34;;;;;;;7.53;5.90;;;;;;;-0.37;68.66;98526.75;4978702;28;20046;-76
2023/03/04 00:58:00;;;;;;;7.13;5.70;;;;;;;-0.27;68.58;98527.97;4992171;28;20556;-76
2023/03/04 01:00:26;;;;;;;8.63;5.82;;;;;;;-0.19;68.45;98524.13;4984287;28;20133;-76
2023/03/04 01:02:52;;;;;;;10.90;6.38;;;;;;;-0.11;68.20;98511.50;4974050;28;20035;-76
2023/03/04 01:05:17;;;;;;;10.25;6.15;;;;;;;-0.03;68.08;98525.09;4972947;28;20549;-76
2023/03/04 01:07:43;;;;;;;7.72;6.10;;;;;;;-0.01;68.41;98520.59;4972885;28;20097;-75
2023/03/04 01:10:11;;;;;;;10.63;6.20;;;;;;;0.08;67.53;98520.16;4973932;28;20486;-75
2023/03/04 01:12:39;;;;;;;8.35;6.28;;;;;;;0.04;67.76;98521.22;4972993;28;20043;-75
2023/03/04 01:15:05;;;;;;;9.93;6.30;;;;;;;0.04;68.02;98513.34;4973885;28;20043;-75
2023/03/04 01:17:32;;;;;;;8.20;6.30;;;;;;;0.13;67.43;98520.75;4972771;28;20558;-76
2023/03/04 01:19:57;;;;;;;9.20;6.55;;;;;;;0.16;67.64;98525.00;4956566;28;20421;-75
2023/03/04 01:22:23;;;;;;;8.52;6.15;;;;;;;0.18;67.70;98524.00;4972536;28;20035;-75
2023/03/04 01:24:49;;;;;;;9.27;6.25;;;;;;;0.16;67.40;98525.00;4973732;28;20058;-75
2023/03/04 01:27:15;;;;;;;9.52;6.15;;;;;;;0.15;67.57;98512.78;4972307;28;20047;-76
2023/03/04 01:29:42;;;;;;;8.98;6.40;;;;;;;0.20;67.74;98518.66;4972488;28;20496;-75
2023/03/04 01:32:08;;;;;;;9.55;6.78;;;;;;;0.16;67.82;98515.34;4973930;28;20057;-75
2023/03/04 01:34:35;;;;;;;10.52;7.38;;;;;;;0.26;67.86;98518.34;4956565;28;20043;-74
2023/03/04 01:37:03;;;;;;;11.63;7.63;;;;;;;0.23;67.75;98503.59;4972625;28;20504;-75
2023/03/04 01:39:29;;;;;;;14.82;7.93;;;;;;;0.34;67.54;98520.56;4972208;28;20493;-76
2023/03/04 01:41:55;;;;;;;11.25;7.28;;;;;;;0.32;67.65;98520.66;4974546;28;20047;-76
2023/03/04 01:44:21;;;;;;;10.18;7.43;;;;;;;0.30;67.62;98516.41;4978684;28;20073;-76
2023/03/04 01:46:50;;;;;;;11.27;6.88;;;;;;;0.22;68.03;98504.50;4978729;28;20125;-75
2023/03/04 01:49:16;;;;;;;10.63;7.10;;;;;;;0.13;68.04;98507.63;4977392;28;20049;-75
2023/03/04 01:51:51;;;;;;;11.98;6.93;;;;;;;0.16;68.51;98504.84;4959782;28;20149;-76
2023/03/04 01:54:18;;;;;;;10.57;7.18;;;;;;;0.23;68.60;98503.59;4975976;28;20379;-75
2023/03/04 01:56:46;;;;;;;10.10;6.80;;;;;;;0.24;68.84;98494.78;4976948;28;20074;-76
2023/03/04 01:59:17;;;;;;;9.52;7.30;;;;;;;0.30;69.40;98500.63;4959840;28;20054;-75
2023/03/04 02:01:52;;;;;;;14.07;8.00;;;;;;;0.30;68.95;98505.88;4975801;28;20041;-76
2023/03/04 02:04:21;;;;;;;12.88;7.85;;;;;;;0.32;69.33;98509.31;4975932;28;20098;-76
2023/03/04 02:06:48;;;;;;;12.82;7.95;;;;;;;0.24;69.77;98502.66;4960215;28;20047;-75
2023/03/04 02:09:16;;;;;;;11.52;7.40;;;;;;;0.27;69.35;98511.31;4943762;28;20053;-75
2023/03/04 02:11:43;;;;;;;10.77;8.00;;;;;;;0.26;69.64;98504.34;4943864;28;20049;-76
2023/03/04 02:14:11;;;;;;;10.13;7.85;;;;;;;0.08;70.83;98507.00;4975239;28;20049;-76
2023/03/04 02:16:37;;;;;;;9.32;7.18;;;;;;;0.04;70.92;98502.84;4975250;28;20050;-77
2023/03/04 02:19:12;;;;;;;12.40;8.45;;;;;;;0.12;70.68;98494.56;4976801;28;20049;-75
2023/03/04 02:21:38;;;;;;;12.25;7.50;;;;;;;0.23;70.65;98500.97;4976137;28;20137;-77
2023/03/04 02:24:25;;;;;;;12.95;8.15;;;;;;;0.30;70.73;98503.25;4977014;28;20133;-76
2023/03/04 02:26:51;;;;;;;9.80;7.22;;;;;;;0.27;71.48;98485.03;4975358;28;20054;-76
2023/03/04 02:29:17;;;;;;;10.38;7.43;;;;;;;0.33;71.40;98485.56;4976098;28;20101;-74
2023/03/04 02:31:49;;;;;;;13.15;7.80;;;;;;;0.30;70.97;98492.75;4958841;28;20043;-76
2023/03/04 02:34:21;;;;;;;12.05;7.72;;;;;;;0.33;71.35;98495.22;4958934;28;20129;-75
2023/03/04 02:36:49;;;;;;;9.95;7.30;;;;;;;0.26;72.02;98492.06;4959252;28;20046;-76
2023/03/04 02:39:31;;;;;;;11.10;7.07;;;;;;;0.29;72.47;98499.78;4958837;28;20474;-75
2023/03/04 02:41:57;;;;;;;8.70;6.75;;;;;;;0.30;72.91;98485.75;4975361;28;20105;-76
2023/03/04 02:44:33;;;;;;;9.95;6.38;;;;;;;0.36;73.02;98490.66;4958871;28;20105;-76
2023/03/04 02:47:01;;;;;;;7.63;5.97;;;;;;;0.40;73.29;98493.97;4942888;28;20045;-77
2023/03/04 02:49:30;;;;;;;10.43;6.32;;;;;;;0.31;73.26;98486.59;4974940;28;20045;-76
2023/03/04 02:52:03;;;;;;;8.90;5.97;;;;;;;0.27;74.22;98490.31;4974795;28;20511;-78
2023/03/04 02:54:30;;;;;;;8.48;6.00;;;;;;;0.22;74.39;98491.34;4974311;28;20043;-76
2023/03/04 02:56:59;;;;;;;8.63;6.65;;;;;;;0.17;75.58;98490.75;4958737;28;20049;-75
2023/03/04 02:59:27;;;;;;;8.82;5.22;;;;;;;0.06;75.96;98487.84;4974692;28;20043;-75
2023/03/04 03:01:53;;;;;;;33.20;7.30;;;;;;;0.07;75.40;98478.16;4975854;28;20039;-77
2023/03/04 03:04:21;;;;;;;8.63;6.30;;;;;;;0.06;76.48;98487.84;4958557;28;20047;-75
2023/03/04 03:06:48;;;;;;;14.27;6.20;;;;;;;-0.01;76.37;98476.78;4974457;28;20062;-76
2023/03/04 03:09:14;;;;;;;7.55;6.25;;;;;;;0.02;76.16;98485.44;4974790;28;20046;-75
2023/03/04 03:11:40;;;;;;;9.07;5.93;;;;;;;-0.02;76.74;98482.13;4975527;28;20043;-78
2023/03/04 03:14:07;;;;;;;10.40;6.10;;;;;;;-0.07;76.68;98481.53;4942612;28;20439;-76
2023/03/04 03:16:33;;;;;;;7.50;6.00;;;;;;;-0.07;77.43;98481.53;4975577;28;20042;-77
2023/03/04 03:18:59;;;;;;;10.02;6.78;;;;;;;0.01;77.19;98483.75;4987996;28;20042;-76
2023/03/04 03:21:25;;;;;;;10.38;7.10;;;;;;;-0.03;76.97;98473.41;4976424;28;20046;-79
2023/03/04 03:23:51;;;;;;;9.80;7.25;;;;;;;-0.03;77.13;98477.81;4968469;28;20057;-78
2023/03/04 03:26:17;;;;;;;10.02;6.93;;;;;;;0.01;76.92;98489.84;4984937;28;20413;-76
2023/03/04 03:28:43;;;;;;;8.75;6.70;;;;;;;-0.08;77.32;98479.78;4945261;28;20039;-77
2023/03/04 03:31:09;;;;;;;11.65;7.63;;;;;;;-0.05;77.37;98477.03;4956033;29;20039;-75
2023/03/04 03:33:35;;;;;;;10.50;7.35;;;;;;;-0.04;77.09;98482.22;4954703;29;20054;-76
2023/03/04 03:36:02;;;;;;;10.43;7.97;;;;;;;-0.05;76.91;98474.38;4955694;28;20050;-75
2023/03/04 03:38:28;;;;;;;14.90;8.32;;;;;;;0.05;77.22;98490.56;4922780;29;20054;-76
2023/03/04 03:40:55;;;;;;;10.85;8.25;;;;;;;0.76;81.07;98487.72;4956947;28;20410;-76
2023/03/04 03:43:22;;;;;;;13.77;8.82;;;;;;;0.58;76.94;98490.38;4970317;28;20090;-76
2023/03/04 03:45:47;;;;;;;11.63;8.00;;;;;;;0.60;76.53;98499.06;4954559;28;20137;-75
2023/03/04 03:48:13;;;;;;;22.55;8.82;;;;;;;0.48;76.06;98489.16;4954073;29;20137;-76
2023/03/04 03:50:39;;;;;;;13.43;9.52;;;;;;;0.69;76.75;98503.81;4973268;28;20046;-77
2023/03/04 03:53:05;;;;;;;18.65;7.57;;;;;;;0.62;75.66;98497.16;4985883;28;20054;-76
2023/03/04 03:55:32;;;;;;;11.32;7.68;;;;;;;0.50;75.41;98505.72;4987223;28;20039;-77
2023/03/04 03:57:57;;;;;;;12.90;8.25;;;;;;;0.59;75.78;98507.00;4961300;28;20139;-78
2023/03/04 04:00:23;;;;;;;12.82;8.45;;;;;;;0.57;75.08;98515.00;4954368;29;20126;-76
2023/03/04 04:02:49;;;;;;;11.90;8.43;;;;;;;0.62;75.53;98517.38;4955352;28;20577;-75
2023/03/04 04:05:15;;;;;;;12.80;8.32;;;;;;;0.71;75.15;98515.13;4938107;29;20047;-77
2023/03/04 04:07:40;;;;;;;11.75;8.13;;;;;;;0.62;74.90;98518.22;4954419;28;20047;-76
2023/03/04 04:10:07;;;;;;;18.35;8.93;;;;;;;0.64;75.25;98516.38;4938071;29;20035;-75
2023/03/04 04:12:33;;;;;;;13.02;8.65;;;;;;;0.77;75.08;98526.22;4938112;29;20043;-76
2023/03/04 04:14:59;;;;;;;12.85;8.07;;;;;;;0.73;74.67;98526.38;4954472;28;20121;-76
2023/03/04 04:17:25;;;;;;;12.30;7.80;;;;;;;0.82;74.83;98525.03;4937522;29;20050;-75
2023/03/04 04:19:51;;;;;;;10.25;7.80;;;;;;;0.75;74.83;98533.34;4954518;29;20095;-75
2023/03/04 04:22:19;;;;;;;12.00;8.57;;;;;;;0.86;74.50;98521.31;4937763;29;20154;-78
2023/03/04 04:24:46;;;;;;;15.95;8.63;;;;;;;0.90;74.21;98532.53;4953593;29;20536;-79
2023/03/04 04:27:12;;;;;;;13.63;8.68;;;;;;;0.96;73.99;98524.31;4954659;28;20062;-80
2023/03/04 04:29:39;;;;;;;10.88;8.48;;;;;;;1.14;75.63;98512.78;4922066;29;20047;-83
2023/03/04 04:32:06;;;;;;;15.65;9.30;;;;;;;1.26;73.72;98513.03;4953509;29;20051;-76
2023/03/04 04:34:31;;;;;;;17.08;9.18;;;;;;;1.17;73.29;98520.50;4954834;28;20074;-77
2023/03/04 04:36:57;;;;;;;13.73;9.15;;;;;;;1.14;73.31;98510.16;4960201;28;20498;-75
2023/03/04 04:39:23;;;;;;;13.73;9.30;;;;;;;1.15;73.41;98509.19;4981774;28;20503;-78
2023/03/04 04:41:49;;;;;;;13.25;8.45;;;;;;;1.20;73.41;98515.09;4972762;28;20057;-79
2023/03/04 04:44:15;;;;;;;12.32;8.75;;;;;;;1.36;73.04;98514.22;4956707;28;20413;-79
2023/03/04 04:46:41;;;;;;;11.40;8.40;;;;;;;1.50;72.31;98511.66;4972693;28;20117;-79
2023/03/04 04:49:07;;;;;;;12.65;8.75;;;;;;;1.40;72.32;98500.81;4974312;28;20085;-79
2023/03/04 04:51:35;;;;;;;8.88;6.13;;;;;;;1.41;71.74;98512.19;4973830;28;20510;-77
2023/03/04 04:54:01;;;;;;;12.75;8.27;;;;;;;1.43;72.11;98519.06;4940408;28;20046;-79
2023/03/04 04:56:27;;;;;;;13.63;8.85;;;;;;;1.42;72.27;98517.34;4973728;28;20050;-81
2023/03/04 04:58:56;;;;;;;13.52;9.07;;;;;;;1.36;72.49;98524.75;4973812;28;20043;-77
2023/03/04 05:01:23;;;;;;;11.65;8.02;;;;;;;1.31;72.42;98521.50;4972685;28;20086;-77
2023/03/04 05:03:51;;;;;;;14.75;8.88;;;;;;;1.30;72.19;98530.34;4956367;28;20050;-77
2023/03/04 05:06:20;;;;;;;12.20;8.48;;;;;;;1.48;71.74;98529.34;4973105;28;20124;-76
2023/03/04 05:08:46;;;;;;;11.73;8.65;;;;;;;1.36;71.58;98530.03;4972900;28;20450;-76
2023/03/04 05:11:12;;;;;;;17.55;9.35;;;;;;;1.30;71.77;98520.66;4978257;28;20042;-77
2023/03/04 05:13:38;;;;;;;15.73;8.60;;;;;;;1.15;72.02;98547.84;4977784;28;20038;-79
2023/03/04 05:16:04;;;;;;;13.60;9.27;;;;;;;1.24;72.47;98528.91;4974218;28;20135;-78
2023/03/04 05:18:30;;;;;;;14.48;8.75;;;;;;;1.29;72.04;98539.19;4976288;28;20043;-76
2023/03/04 05:21:00;;;;;;;14.77;9.15;;;;;;;1.27;72.41;98525.25;4960429;28;20046;-77
2023/03/04 05:23:28;;;;;;;13.48;9.65;;;;;;;1.30;71.87;98530.34;4976550;28;20102;-77
2023/03/04 05:25:54;;;;;;;13.20;8.02;;;;;;;1.29;71.74;98523.41;4960433;28;20097;-77
2023/03/04 05:28:20;;;;;;;13.30;9.10;;;;;;;1.28;72.14;98532.22;4976454;28;20050;-79
2023/03/04 05:30:46;;;;;;;14.63;8.98;;;;;;;1.32;72.29;98534.63;4960316;28;20101;-78
2023/03/04 05:33:14;;;;;;;12.77;8.65;;;;;;;1.28;72.33;98532.22;4975378;28;20043;-79
2023/03/04 05:35:41;;;;;;;14.43;8.75;;;;;;;1.20;72.96;98522.09;4976096;28;20062;-76
2023/03/04 05:38:09;;;;;;;12.25;8.40;;;;;;;1.41;72.20;98518.28;4976882;28;20054;-76
2023/03/04 05:40:35;;;;;;;13.77;9.27;;;;;;;1.46;71.58;98521.50;4975579;28;20051;-77
2023/03/04 05:43:02;;;;;;;15.90;10.55;;;;;;;1.52;72.01;98520.31;4976190;28;20070;-78
2023/03/04 05:45:27;;;;;;;16.33;10.30;;;;;;;1.53;72.09;98522.00;4981838;28;20061;-77
2023/03/04 05:47:53;;;;;;;15.23;9.40;;;;;;;1.62;71.73;98520.66;4989993;28;20050;-77
2023/03/04 05:50:21;;;;;;;12.63;8.82;;;;;;;1.61;71.20;98527.69;5011324;28;20042;-76
2023/03/04 05:52:47;;;;;;;14.15;9.82;;;;;;;1.62;71.46;98537.31;4978882;28;20497;-76
2023/03/04 05:55:14;;;;;;;11.88;8.38;;;;;;;1.36;71.80;98530.03;4995104;28;20038;-77
2023/03/04 05:57:40;;;;;;;12.38;8.88;;;;;;;1.45;71.67;98538.25;4995894;28;20046;-77
2023/03/04 06:00:08;;;;;;;15.00;8.07;;;;;;;1.41;71.81;98527.97;4978386;28;20591;-77
2023/03/04 06:02:39;;;;;;;13.38;8.63;;;;;;;1.29;72.29;98533.94;4979594;28;20049;-77
2023/03/04 06:05:05;;;;;;;15.30;9.35;;;;;;;1.32;74.38;98526.72;4979127;28;20058;-93
2023/03/04 06:07:31;;;;;;;12.60;8.70;;;;;;;1.46;73.09;98539.94;4962963;28;20042;-77
2023/03/04 06:09:57;;;;;;;12.88;8.95;;;;;;;1.32;72.91;98539.03;4996130;28;20053;-77
2023/03/04 06:12:23;;;;;;;13.63;9.52;;;;;;;1.35;72.74;98538.84;4978566;28;20042;-78
2023/03/04 06:14:49;;;;;;;14.63;9.35;;;;;;;1.21;73.43;98529.09;4978788;28;20069;-78
2023/03/04 06:17:15;;;;;;;15.48;10.48;;;;;;;1.33;73.38;98531.03;4978672;28;20493;-77
2023/03/04 06:19:41;;;;;;;16.42;9.70;;;;;;;1.41;73.41;98538.50;4994694;28;20449;-79
2023/03/04 06:22:08;;;;;;;17.25;10.68;;;;;;;1.53;72.92;98537.81;4995981;28;20054;-77
2023/03/04 06:24:34;;;;;;;13.52;9.75;;;;;;;1.75;72.17;98531.34;4994553;28;20050;-78
2023/03/04 06:27:00;;;;;;;17.35;10.55;;;;;;;1.77;72.22;98534.72;4994507;28;20054;-77
2023/03/04 06:29:26;;;;;;;14.18;10.68;;;;;;;1.90;71.98;98535.72;4977153;28;20050;-77
2023/03/04 06:31:52;;;;;;;15.50;10.68;;;;;;;2.01;71.33;98535.13;4962243;28;20039;-77
2023/03/04 06:34:18;;;;;;;20.17;10.43;;;;;;;1.92;71.83;98525.97;4995624;28;20501;-77
2023/03/04 06:36:44;;;;;;;16.25;9.35;;;;;;;1.97;71.67;98526.53;4994489;28;20137;-76
2023/03/04 06:39:10;;;;;;;12.95;10.13;;;;;;;1.86;71.62;98532.44;4994026;28;20574;-78
2023/03/04 06:41:37;;;;;;;17.17;9.43;;;;;;;1.89;71.53;98526.13;4978185;28;20089;-78
2023/03/04 06:44:03;;;;;;;14.02;10.65;;;;;;;1.83;72.09;98523.84;4977890;28;20034;-76
2023/03/04 06:46:29;;;;;;;16.38;10.65;;;;;;;1.81;72.52;98531.00;4961896;28;20498;-78
2023/03/04 06:48:55;;;;;;;15.00;9.73;;;;;;;1.80;72.31;98526.66;4994290;28;20046;-77
2023/03/04 06:51:21;;;;;;;16.38;10.68;;;;;;;1.77;72.50;98529.44;5010932;28;20053;-77
2023/03/04 06:53:47;;;;;;;17.58;10.82;;;;;;;1.74;72.30;98525.22;4995105;28;20046;-78
2023/03/04 06:56:16;;;;;;;14.77;10.18;;;;;;;1.60;72.46;98523.38;4994175;28;20053;-79
2023/03/04 06:58:43;;;;;;;16.33;9.43;;;;;;;1.43;73.62;98520.84;4993925;28;20046;-77
2023/03/04 07:01:15;;;;;;;12.95;8.70;;;;;;;1.45;73.49;98518.97;4977682;28;20049;-78
2023/03/04 07:03:41;;;;;;;15.77;10.40;;;;;;;1.49;73.72;98528.41;4977612;28;20085;-78
2023/03/04 07:06:13;;;;;;;16.95;9.98;;;;;;;1.55;73.52;98525.44;4994249;28;20046;-81
2023/03/04 07:08:39;;;;;;;11.60;8.38;;;;;;;1.46;73.97;98525.94;4993928;28;20050;-78
2023/03/04 07:11:06;;;;;;;15.48;9.63;;;;;;;1.35;74.51;98523.03;4995078;28;20141;-77
2023/03/04 07:13:34;;;;;;;14.30;9.77;;;;;;;1.42;74.54;98524.41;4993700;28;20050;-77
2023/03/04 07:16:00;;;;;;;14.90;10.20;;;;;;;1.59;73.82;98526.94;4993613;28;20505;-77
2023/03/04 07:18:26;;;;;;;14.60;9.30;;;;;;;1.64;73.85;98524.03;4993765;28;20141;-76
2023/03/04 07:20:53;;;;;;;14.10;8.65;;;;;;;1.59;73.73;98526.94;5009826;28;20054;-77
2023/03/04 07:23:19;;;;;;;14.50;10.30;;;;;;;1.73;73.58;98513.00;4993525;28;20452;-77
2023/03/04 07:25:45;;;;;;;14.65;9.70;;;;;;;1.74;73.31;98519.97;4977339;28;20125;-77
2023/03/04 07:28:11;;;;;;;29.55;12.02;;;;;;;1.76;73.62;98506.69;4977010;28;20513;-77
2023/03/04 07:30:37;;;;;;;17.92;10.93;;;;;;;1.89;73.06;98519.06;4977212;28;20172;-78
2023/03/04 07:33:02;;;;;;;16.63;10.10;;;;;;;2.03;72.57;98520.91;4993607;28;20049;-78
2023/03/04 07:35:28;;;;;;;14.23;9.77;;;;;;;2.01;72.48;98517.50;4993460;28;20042;-77
2023/03/04 07:37:54;;;;;;;22.52;10.75;;;;;;;2.14;72.10;98501.81;4993326;28;20046;-77
2023/03/04 07:40:20;;;;;;;17.75;9.90;;;;;;;2.06;71.73;98514.59;4993007;28;20062;-77
2023/03/04 07:42:53;;;;;;;14.80;9.00;;;;;;;2.14;71.49;98518.50;5009601;28;20093;-76
2023/03/04 07:45:19;;;;;;;13.80;9.90;;;;;;;2.06;71.66;98518.09;4994418;28;20057;-77
2023/03/04 07:47:45;;;;;;;13.05;8.40;;;;;;;1.96;71.66;98519.56;4977727;28;20142;-77
2023/03/04 07:50:11;;;;;;;14.20;10.02;;;;;;;2.00;72.40;98518.47;4994665;28;20043;-75
2023/03/04 07:52:42;;;;;;;13.93;10.02;;;;;;;2.11;72.21;98516.03;4993123;28;20042;-77
2023/03/04 07:55:10;;;;;;;14.88;9.27;;;;;;;2.55;74.48;98514.31;4993955;28;20405;-78
2023/03/04 07:57:43;;;;;;;12.50;9.18;;;;;;;2.81;70.46;98515.38;4960316;28;20433;-76
2023/03/04 08:00:11;;;;;;;12.70;8.95;;;;;;;2.92;69.21;98520.81;4992747;28;20042;-77
2023/03/04 08:02:40;;;;;;;15.07;10.32;;;;;;;2.78;69.46;98520.81;4984529;28;20100;-77
2023/03/04 08:05:06;;;;;;;13.00;9.75;;;;;;;2.90;69.04;98517.44;4995138;28;20198;-79
2023/03/04 08:07:32;;;;;;;13.43;9.52;;;;;;;2.96;68.89;98516.22;4977149;28;20160;-78
2023/03/04 08:09:58;;;;;;;10.55;8.38;;;;;;;2.91;68.32;98513.84;4976646;28;20049;-76
2023/03/04 08:12:25;;;;;;;12.88;9.25;;;;;;;2.72;69.09;98523.84;4976451;28;20050;-79
2023/03/04 08:14:51;;;;;;;12.43;8.75;;;;;;;2.73;68.72;98510.56;4966924;28;20043;-81
2023/03/04 08:17:20;;;;;;;13.85;8.93;;;;;;;2.84;68.42;98512.53;4954771;29;20066;-79
2023/03/04 08:19:46;;;;;;;13.75;9.40;;;;;;;2.86;68.94;98505.38;4953908;29;20043;-78
2023/03/04 08:22:12;;;;;;;11.20;7.55;;;;;;;2.91;68.07;98492.75;4969598;28;20517;-79
2023/03/04 08:24:38;;;;;;;13.98;8.75;;;;;;;3.07;68.08;98503.19;4953875;28;20118;-79
2023/03/04 08:27:03;;;;;;;13.80;8.23;;;;;;;3.22;67.18;98485.53;4969590;28;20498;-79
2023/03/04 08:29:29;;;;;;;15.15;9.43;;;;;;;3.27;67.84;98500.16;4954821;29;20495;-78
2023/03/04 08:31:55;;;;;;;12.93;8.52;;;;;;;3.44;66.97;98488.47;4953682;29;20514;-80
2023/03/04 08:34:23;;;;;;;14.70;9.13;;;;;;;3.65;66.96;98495.03;4937549;29;20545;-79
2023/03/04 08:36:49;;;;;;;14.57;8.50;;;;;;;3.80;65.75;98494.94;4953650;28;20043;-80
2023/03/04 08:39:17;;;;;;;10.80;7.22;;;;;;;3.60;65.32;98490.97;4953028;29;20059;-78
2023/03/04 08:41:43;;;;;;;9.75;7.35;;;;;;;3.53;66.01;98501.09;4935959;28;20513;-80
2023/03/04 08:44:10;;;;;;;11.13;7.78;;;;;;;3.32;66.35;98481.34;4952724;29;20081;-79
2023/03/04 08:46:37;;;;;;;11.10;8.43;;;;;;;3.52;66.12;98488.00;4952543;29;20043;-75
2023/03/04 08:49:03;;;;;;;16.42;8.40;;;;;;;3.81;66.26;98484.28;4937210;29;20051;-78
2023/03/04 08:51:30;;;;;;;9.60;7.20;;;;;;;4.09;65.06;98482.44;4937182;29;20054;-77
2023/03/04 08:53:56;;;;;;;8.43;7.22;;;;;;;4.26;64.57;98481.31;4953861;29;20051;-77
2023/03/04 08:56:22;;;;;;;9.40;6.72;;;;;;;4.03;64.26;98483.72;4969064;28;20499;-78
2023/03/04 08:58:48;;;;;;;12.10;7.30;;;;;;;3.96;64.38;98474.50;4921218;29;20459;-79
2023/03/04 09:01:14;;;;;;;9.63;6.78;;;;;;;4.11;63.69;98473.47;4936789;29;20078;-79
2023/03/04 09:03:41;;;;;;;10.38;7.50;;;;;;;4.24;63.78;98470.81;4954517;29;20141;-78
2023/03/04 09:06:10;;;;;;;13.10;7.63;;;;;;;4.40;62.94;98460.06;4936948;29;20137;-78
2023/03/04 09:08:36;;;;;;;11.02;7.93;;;;;;;4.59;62.24;98460.47;4953066;29;20058;-78
2023/03/04 09:11:02;;;;;;;7.97;5.93;;;;;;;4.73;61.70;98458.63;4920958;29;20039;-79
2023/03/04 09:13:29;;;;;;;9.63;7.00;;;;;;;4.63;62.06;98454.00;4936876;29;20055;-78
2023/03/04 09:15:56;;;;;;;9.60;7.15;;;;;;;4.58;62.59;98449.97;4952663;29;20047;-80
2023/03/04 09:18:23;;;;;;;8.57;7.32;;;;;;;4.54;62.27;98461.72;4952122;29;20071;-81
2023/03/04 09:20:52;;;;;;;12.13;6.90;;;;;;;4.46;62.74;98456.97;4917382;29;20191;-79
2023/03/04 09:23:18;;;;;;;11.43;8.77;;;;;;;4.54;62.47;98453.78;4916786;29;20514;-78
2023/03/04 09:25:46;;;;;;;13.40;7.22;;;;;;;4.53;62.60;98455.59;4916708;29;20150;-78
2023/03/04 09:28:13;;;;;;;9.98;6.90;;;;;;;4.82;62.09;98447.41;4932721;29;20048;-78
2023/03/04 09:30:39;;;;;;;13.93;8.00;;;;;;;4.60;61.98;98440.13;4901166;29;20561;-77
2023/03/04 09:33:05;;;;;;;9.43;7.32;;;;;;;4.83;62.02;98441.16;4917470;29;20052;-78
2023/03/04 09:35:31;;;;;;;11.43;7.60;;;;;;;4.93;61.55;98447.50;4916720;29;20407;-79
2023/03/04 09:37:58;;;;;;;13.05;7.65;;;;;;;4.88;61.31;98449.63;4916287;29;20063;-78
2023/03/04 09:40:28;;;;;;;10.18;7.68;;;;;;;4.69;61.94;98443.94;4916285;29;20142;-78
2023/03/04 09:43:03;;;;;;;10.70;7.80;;;;;;;4.86;61.64;98435.66;4916923;29;20058;-78
2023/03/04 09:45:39;;;;;;;11.57;8.10;;;;;;;4.91;61.95;98449.41;4916937;29;20052;-81
2023/03/04 09:48:06;;;;;;;11.90;8.43;;;;;;;4.73;62.13;98443.59;4916314;29;20391;-77
2023/03/04 09:50:38;;;;;;;12.02;8.38;;;;;;;4.61;63.16;98436.53;4932740;29;20423;-81
2023/03/04 09:53:17;;;;;;;13.00;8.20;;;;;;;4.68;62.94;98423.72;4901090;29;20067;-79
2023/03/04 09:55:48;;;;;;;15.93;8.65;;;;;;;4.47;63.05;98416.31;4916913;29;20528;-79
2023/03/04 09:58:21;;;;;;;13.45;9.13;;;;;;;4.27;64.26;98438.88;4948915;28;20102;-79
2023/03/04 10:00:55;;;;;;;14.40;9.60;;;;;;;4.08;64.71;98427.84;4952043;29;20636;-79
2023/03/04 10:03:44;;;;;;;13.20;9.10;;;;;;;4.12;65.07;98429.34;4952300;29;20050;-79
2023/03/04 10:06:19;;;;;;;16.15;8.27;;;;;;;3.90;64.81;98435.22;4970927;28;20115;-79
2023/03/04 10:09:10;;;;;;;11.52;8.40;;;;;;;3.54;65.83;98415.59;4939890;29;20071;-77
2023/03/04 10:11:44;;;;;;;12.15;9.45;;;;;;;3.48;66.14;98418.66;4923866;29;20138;-78
2023/03/04 10:14:22;;;;;;;15.00;9.13;;;;;;;3.54;65.96;98417.41;4955345;29;20098;-79
2023/03/04 10:17:05;;;;;;;12.82;8.13;;;;;;;3.62;65.66;98421.22;4955165;28;20047;-79
2023/03/04 10:19:55;;;;;;;15.48;8.85;;;;;;;3.45;65.74;98426.75;4955651;29;20089;-80
2023/03/04 10:22:25;;;;;;;11.65;7.78;;;;;;;3.38;65.96;98423.66;4965815;28;20137;-79
2023/03/04 10:24:57;;;;;;;13.32;8.93;;;;;;;3.40;66.58;98413.88;4978195;28;20482;-78
2023/03/04 10:27:24;;;;;;;13.90;8.50;;;;;;;3.49;66.17;98401.84;4995561;28;20042;-78
2023/03/04 10:29:50;;;;;;;12.60;8.52;;;;;;;3.72;66.04;98420.59;4977961;28;20058;-81
2023/03/04 10:32:20;;;;;;;14.07;8.32;;;;;;;3.82;64.99;98411.13;4993598;28;20042;-78
2023/03/04 10:34:46;;;;;;;12.07;9.05;;;;;;;3.81;65.08;98404.97;4994136;28;20050;-78
2023/03/04 10:37:12;;;;;;;16.05;8.68;;;;;;;3.98;64.55;98410.91;5010802;28;20034;-78
2023/03/04 10:40:00;;;;;;;12.70;8.93;;;;;;;4.01;64.41;98405.44;4975176;28;20085;-80
2023/03/04 10:42:28;;;;;;;10.90;8.50;;;;;;;4.14;63.81;98423.00;4980780;28;20059;-79
2023/03/04 10:44:57;;;;;;;11.40;7.90;;;;;;;3.88;63.74;98395.69;4919328;29;20043;-79
2023/03/04 10:47:26;;;;;;;11.60;8.10;;;;;;;3.93;63.96;98410.38;4919961;29;20051;-76
2023/03/04 10:49:57;;;;;;;10.87;8.03;;;;;;;3.68;64.66;98397.97;4920467;29;20426;-78
2023/03/04 10:52:48;;;;;;;12.73;7.63;;;;;;;3.71;64.43;98388.03;4920342;29;20051;-78
2023/03/04 10:55:24;;;;;;;9.55;7.60;;;;;;;3.77;64.50;98392.09;4920555;29;20054;-76
2023/03/04 10:58:03;;;;;;;11.27;6.95;;;;;;;3.74;63.85;98400.22;4920071;29;20560;-80
2023/03/04 11:00:35;;;;;;;10.63;7.05;;;;;;;3.65;63.97;98393.75;4920234;29;20421;-80
2023/03/04 11:03:25;;;;;;;10.43;7.47;;;;;;;3.94;63.40;98393.56;4964695;28;20050;-78
2023/03/04 11:06:07;;;;;;;9.07;6.90;;;;;;;3.90;63.40;98391.13;4942488;29;20541;-77
2023/03/04 11:08:33;;;;;;;8.07;7.07;;;;;;;3.96;62.69;98386.41;4920120;29;20054;-77
2023/03/04 11:10:59;;;;;;;9.07;6.57;;;;;;;3.94;62.58;98389.13;4908296;29;20085;-75
2023/03/04 11:13:26;;;;;;;10.77;7.35;;;;;;;3.98;62.34;98380.03;4914218;29;20062;-78
2023/03/04 11:15:58;;;;;;;11.75;7.93;;;;;;;3.90;62.69;98390.28;4936628;29;20047;-79
2023/03/04 11:19:05;;;;;;;12.00;7.47;;;;;;;3.77;62.54;98384.16;4936888;29;20539;-76
2023/03/04 11:21:38;;;;;;;12.73;7.53;;;;;;;3.41;63.75;98369.78;4901992;29;20756;-78
2023/03/04 11:24:15;;;;;;;10.20;7.63;;;;;;;3.17;65.01;98373.13;4885983;29;20067;-79
2023/03/04 11:26:52;;;;;;;10.57;7.22;;;;;;;3.21;65.59;98372.91;4936868;29;20051;-78
2023/03/04 11:29:33;;;;;;;11.38;7.13;;;;;;;3.30;65.88;98377.59;4937305;29;20047;-78
2023/03/04 11:32:11;;;;;;;9.13;7.53;;;;;;;3.35;65.96;98371.06;4968840;28;20101;-78
2023/03/04 11:34:52;;;;;;;12.90;8.13;;;;;;;3.17;66.45;98369.63;4936828;29;20051;-79
2023/03/04 11:37:28;;;;;;;12.07;7.75;;;;;;;2.86;67.94;98358.44;4936816;29;20135;-77
2023/03/04 11:40:01;;;;;;;10.18;7.07;;;;;;;2.79;68.53;98369.47;4952380;29;20490;-76